This is the latest recevied weather packets stored in our database for station/object KI4HRG. If no packets are shown the sender has not sent any weather packets the latest 10 day(s).
| Time | Temp. | Humidity | Pressure | Rain* | Wind** | Luminosity | Snow |
|---|---|---|---|---|---|---|---|
| 1787764064 | 32.78° C | 54% | 1016.9 hPa | 0 mm | - | 675 W/m² | - |
| 1787763758 | 32.22° C | 54% | 1016.8 hPa | 0 mm | - | 631 W/m² | - |
| 1787763454 | 32.22° C | 54% | 1016.9 hPa | 0 mm | - | 652 W/m² | - |
| 1787763154 | 31.67° C | 56% | 1017.1 hPa | 0 mm | - | 654 W/m² | - |
| 1787762854 | 32.78° C | 52% | 1016.9 hPa | 0 mm | - | 666 W/m² | - |
| 1787762548 | 32.78° C | 50% | 1016.9 hPa | 0 mm | - | 671 W/m² | - |
| 1787762245 | 31.67° C | 56% | 1017 hPa | 0 mm | - | 632 W/m² | - |
| 1787761940 | 32.78° C | 54% | 1016.9 hPa | 0 mm | - | 676 W/m² | - |
| 1787761635 | 32.22° C | 56% | 1017 hPa | 0 mm | - | 680 W/m² | - |
| 1787761331 | 32.78° C | 55% | 1017 hPa | 0 mm | - | 605 W/m² | - |
| 1787761029 | 32.22° C | 56% | 1017 hPa | 0 mm | - | 671 W/m² | - |
| 1787760728 | 32.22° C | 56% | 1017 hPa | 0 mm | - | 645 W/m² | - |
| 1787760423 | 31.67° C | 55% | 1017.1 hPa | 0 mm | - | 704 W/m² | - |
| 1787760118 | 31.11° C | 56% | 1017.3 hPa | 0 mm | - | 683 W/m² | - |
| 1787759814 | 31.11° C | 57% | 1017.3 hPa | 0 mm | - | 760 W/m² | - |
| 1787759510 | 30.56° C | 58% | 1017.4 hPa | 0 mm | - | 652 W/m² | - |
| 1787759205 | 30.56° C | 59% | 1017.5 hPa | 0 mm | - | 716 W/m² | - |
| 1787758904 | 30.56° C | 60% | 1017.4 hPa | 0 mm | - | 705 W/m² | - |
| 1787758600 | 29.44° C | 62% | 1017.4 hPa | 0 mm | - | 749 W/m² | - |
| 1787758299 | 29.44° C | 65% | 1017.7 hPa | 0 mm | - | 423 W/m² | - |
| 1787757993 | 29.44° C | 65% | 1017.6 hPa | 0 mm | - | 393 W/m² | - |
| 1787757691 | 29.44° C | 67% | 1017.7 hPa | 0 mm | - | 638 W/m² | - |
| 1787757390 | 29.44° C | 67% | 1017.6 hPa | 0 mm | - | 295 W/m² | - |
| 1787757085 | 29.44° C | 68% | 1017.4 hPa | 0 mm | - | 284 W/m² | - |
| 1787756778 | 28.89° C | 69% | 1017.6 hPa | 0 mm | - | 549 W/m² | - |
* Rain latest hour (hover to see other rain measurements)
** Current wind speed in m/s (hover to see current wind gust speed)